Terminal Aerodrome Forecast
Issued by NWS Grand Forks, ND

Home | Current Version | Previous Version | Graphics & Text | Print | Product List | Glossary On
Versions: 1 2 3 4 5 6 7 8 9 10 11 12 13 14
121
FTUS43 KFGF 260404 AAA
TAFGFK
TAF AMD
KGFK 260404Z 2604/2624 04007KT P6SM BKN060
     FM260800 03004KT P6SM SCT080
     FM261000 03004KT P6SM BKN250
     FM261100 03004KT P6SM SCT250
     FM261800 02008KT P6SM FEW250=

USA.gov is the U.S. government's official web portal to all federal, state and local government web resources and services.